Time;durP1;ratioP1;P1;durP2;ratioP2;P2;SDS_P1;SDS_P2;PMS_P1;PMS_P2;Temp;Humidity;BMP_temperature;BMP_pressure;BME280_temperature;BME280_humidity;BME280_pressure;Samples;Min_cycle;Max_cycle;Signal;HPM_P1;HPM_P2
2023/02/19 00:01:24;;;;;;;;;6.00;4.33;;;;;13.53;100.00;101834.22;5110491;27;45395;-80
2023/02/19 00:03:52;;;;;;;;;9.00;6.33;;;;;13.51;100.00;101835.97;5087481;27;47659;-81
2023/02/19 00:06:19;;;;;;;;;6.00;5.33;;;;;13.52;100.00;101847.53;5108232;27;45425;-81
2023/02/19 00:08:45;;;;;;;;;9.00;8.33;;;;;13.50;100.00;101849.28;5111250;27;45381;-81
2023/02/19 00:11:15;;;;;;;;;11.33;9.67;;;;;13.53;100.00;101841.31;5128610;27;45368;-81
2023/02/19 00:13:43;;;;;;;;;7.00;7.00;;;;;13.50;100.00;101843.94;5128321;27;45490;-82
2023/02/19 00:16:21;;;;;;;;;9.67;7.00;;;;;13.53;100.00;101834.22;5108245;27;45593;-82
2023/02/19 00:18:46;;;;;;;;;8.33;8.33;;;;;13.41;100.00;101828.59;5127597;27;44867;-81
2023/02/19 00:21:13;;;;;;;;;8.67;8.67;;;;;13.41;100.00;101833.94;5109536;27;45393;-82
2023/02/19 00:23:39;;;;;;;;;9.00;8.00;;;;;13.40;100.00;101838.41;5127027;27;45474;-81
2023/02/19 00:26:07;;;;;;;;;6.33;6.33;;;;;13.42;100.00;101834.88;5127188;27;45477;-81
2023/02/19 00:28:34;;;;;;;;;7.33;6.67;;;;;13.43;100.00;101842.00;5108434;27;45294;-82
2023/02/19 00:31:09;;;;;;;;;8.33;8.33;;;;;13.50;100.00;101841.25;5127650;27;45586;-81
2023/02/19 00:33:34;;;;;;;;;6.67;6.67;;;;;13.39;100.00;101836.59;5125586;27;45471;-82
2023/02/19 00:36:04;;;;;;;;;6.00;6.00;;;;;13.47;100.00;101843.84;5127273;27;45361;-82
2023/02/19 00:38:31;;;;;;;;;11.00;7.33;;;;;13.37;100.00;101833.00;5108855;27;45507;-82
2023/02/19 00:40:59;;;;;;;;;10.00;7.67;;;;;13.42;100.00;101829.53;5126863;27;45431;-81
2023/02/19 00:43:25;;;;;;;;;11.67;10.33;;;;;13.36;100.00;101832.97;5107767;27;46919;-81
2023/02/19 00:45:50;;;;;;;;;7.00;7.00;;;;;13.35;100.00;101818.72;5107174;27;45918;-80
2023/02/19 00:48:15;;;;;;;;;9.00;9.00;;;;;13.34;100.00;101821.34;5127028;27;45782;-80
2023/02/19 00:50:41;;;;;;;;;7.67;7.67;;;;;13.33;100.00;101833.81;5126415;27;45535;-81
2023/02/19 00:53:06;;;;;;;;;11.00;9.00;;;;;13.32;100.00;101823.97;5126298;27;45360;-82
2023/02/19 00:55:32;;;;;;;;;10.00;8.67;;;;;13.32;100.00;101821.31;5110019;27;45573;-81
2023/02/19 00:57:57;;;;;;;;;7.33;7.33;;;;;13.35;100.00;101828.47;5106478;27;45674;-80
2023/02/19 01:00:23;;;;;;;;;9.67;7.33;;;;;13.37;100.00;101825.00;5112453;27;45483;-80
2023/02/19 01:02:48;;;;;;;;;8.67;8.67;;;;;13.38;100.00;101823.22;5128425;27;45145;-80
2023/02/19 01:05:13;;;;;;;;;5.67;5.67;;;;;13.37;100.00;101818.72;5106721;27;45418;-83
2023/02/19 01:07:39;;;;;;;;;8.33;7.00;;;;;13.29;100.00;101813.25;5108453;27;45464;-82
2023/02/19 01:10:05;;;;;;;;;9.67;9.67;;;;;13.36;100.00;101825.84;5127039;27;44798;-81
2023/02/19 01:12:31;;;;;;;;;10.67;9.00;;;;;13.31;100.00;101810.59;5107628;27;47195;-81
2023/02/19 01:14:57;;;;;;;;;10.67;9.00;;;;;13.33;100.00;101823.13;5107078;27;45875;-81
2023/02/19 01:17:22;;;;;;;;;11.00;10.00;;;;;13.33;100.00;101819.53;5126010;27;45435;-81
2023/02/19 01:19:48;;;;;;;;;6.00;6.00;;;;;13.33;100.00;101831.16;5125742;27;45443;-79
2023/02/19 01:22:13;;;;;;;;;11.67;10.33;;;;;13.32;100.00;101823.09;5126129;27;45279;-81
2023/02/19 01:24:40;;;;;;;;;11.33;10.67;;;;;13.33;100.00;101815.13;5106059;27;45291;-82
2023/02/19 01:27:06;;;;;;;;;10.00;7.00;;;;;13.30;100.00;101811.47;5108954;27;45628;-80
2023/02/19 01:29:31;;;;;;;;;10.67;10.00;;;;;13.30;100.00;101820.38;5107437;27;45537;-80
2023/02/19 01:31:56;;;;;;;;;11.67;10.33;;;;;13.26;100.00;101818.47;5105800;27;46609;-83
2023/02/19 01:34:22;;;;;;;;;10.67;10.67;;;;;13.27;100.00;101822.97;5106750;27;45839;-81
2023/02/19 01:36:48;;;;;;;;;6.67;6.67;;;;;13.30;100.00;101814.16;5129045;27;45440;-81
2023/02/19 01:39:14;;;;;;;;;6.00;6.00;;;;;13.29;100.00;101826.59;5107727;27;45622;-81
2023/02/19 01:41:40;;;;;;;;;6.67;6.00;;;;;13.32;100.00;101834.66;5123296;27;45443;-82
2023/02/19 01:44:27;;;;;;;;;6.00;6.00;;;;;13.34;100.00;101832.94;5105964;27;45996;-81
2023/02/19 01:46:56;;;;;;;;;7.00;7.00;;;;;13.33;100.00;101828.47;5123885;27;45712;-81
2023/02/19 01:49:29;;;;;;;;;6.33;6.33;;;;;13.32;100.00;101813.28;5125356;27;45423;-80
2023/02/19 01:52:08;;;;;;;;;5.33;5.33;;;;;13.39;100.00;101825.00;5126135;27;45337;-79
2023/02/19 01:54:37;;;;;;;;;7.00;7.00;;;;;13.33;100.00;101825.81;5124741;27;45390;-80
2023/02/19 01:57:07;;;;;;;;;7.67;7.00;;;;;13.32;100.00;101826.66;5106151;27;45547;-82
2023/02/19 01:59:33;;;;;;;;;6.00;6.00;;;;;13.27;100.00;101820.31;5106146;27;45554;-81
2023/02/19 02:01:59;;;;;;;;;5.67;5.67;;;;;13.23;100.00;101823.78;5105381;27;46979;-81
2023/02/19 02:04:24;;;;;;;;;7.00;7.00;;;;;13.28;100.00;101822.09;5122045;27;45461;-80
2023/02/19 02:06:56;;;;;;;;;6.00;5.33;;;;;13.36;100.00;101831.19;5124600;27;45352;-80
2023/02/19 02:12:09;;;;;;;;;6.00;6.00;;;;;13.30;100.00;101824.84;5124589;27;45457;-81
2023/02/19 02:14:40;;;;;;;;;4.67;4.67;;;;;13.29;100.00;101813.25;5106314;27;45541;-80
2023/02/19 02:17:21;;;;;;;;;4.67;4.00;;;;;13.36;100.00;101815.16;5083899;27;45444;-80
2023/02/19 02:20:21;;;;;;;;;4.67;4.67;;;;;13.34;100.00;101832.03;5084967;27;45455;-81
2023/02/19 02:23:15;;;;;;;;;4.00;4.00;;;;;13.39;100.00;101828.59;5108780;27;45389;-81
2023/02/19 02:26:11;;;;;;;;;9.33;7.00;;;;;13.33;100.00;101825.81;5105432;27;45364;-81
2023/02/19 02:28:43;;;;;;;;;5.67;5.67;;;;;13.29;100.00;101822.97;5084065;27;45220;-80
2023/02/19 02:31:17;;;;;;;;;5.67;5.67;;;;;13.30;100.00;101824.84;5085691;27;45400;-80
2023/02/19 02:33:56;;;;;;;;;6.00;6.00;;;;;13.30;100.00;101825.72;5080562;28;47254;-80
2023/02/19 02:36:28;;;;;;;;;6.00;5.33;;;;;13.30;100.00;101819.50;5079769;28;46018;-80
2023/02/19 02:38:55;;;;;;;;;6.00;6.00;;;;;13.24;100.00;101811.31;5081174;27;45689;-81
2023/02/19 02:41:22;;;;;;;;;5.00;5.00;;;;;13.30;100.00;101817.72;5080893;28;45361;-81
2023/02/19 02:43:47;;;;;;;;;6.00;4.33;;;;;13.27;100.00;101824.72;5079958;27;45897;-81
2023/02/19 02:46:28;;;;;;;;;5.00;5.00;;;;;13.30;100.00;101820.38;5082507;28;45642;-81
2023/02/19 02:48:57;;;;;;;;;6.67;4.00;;;;;13.31;100.00;101816.84;5079577;28;45696;-81
2023/02/19 02:51:34;;;;;;;;;3.67;3.67;;;;;13.34;100.00;101821.34;5079965;28;45351;-80
2023/02/19 02:56:53;;;;;;;;;4.00;4.00;;;;;13.22;100.00;101821.97;5082892;28;45445;-82
2023/02/19 02:59:22;;;;;;;;;3.33;3.33;;;;;13.24;100.00;101825.56;5083736;28;45479;-81
2023/02/19 03:02:12;;;;;;;;;3.67;3.67;;;;;13.31;100.00;101824.88;5082341;28;45561;-81
2023/02/19 03:08:17;;;;;;;;;5.00;4.00;;;;;13.23;100.00;101823.78;5082537;28;45474;-81
2023/02/19 03:10:54;;;;;;;;;4.00;4.00;;;;;13.21;100.00;101830.88;5063228;28;45470;-81
2023/02/19 03:19:19;;;;;;;;;4.33;4.33;;;;;13.25;100.00;101826.47;5081489;28;45754;-81
2023/02/19 03:22:12;;;;;;;;;4.67;4.67;;;;;13.25;100.00;101827.38;5082527;27;45345;-80
2023/02/19 03:27:32;;;;;;;;;2.00;2.00;;;;;13.09;100.00;101841.25;5084415;28;45546;-81
2023/02/19 03:30:03;;;;;;;;;4.00;4.00;;;;;13.04;100.00;101837.59;5083448;27;45397;-81
2023/02/19 03:32:37;;;;;;;;;1.67;1.67;;;;;12.93;100.00;101832.94;5087223;27;45534;-80
2023/02/19 03:35:12;;;;;;;;;2.00;2.00;;;;;12.87;100.00;101835.47;5102377;27;45456;-80
2023/02/19 03:37:44;;;;;;;;;2.00;2.00;;;;;12.89;100.00;101844.41;5104640;27;46170;-81
2023/02/19 03:40:10;;;;;;;;;1.00;1.00;;;;;12.81;100.00;101828.22;5107191;27;45380;-81
2023/02/19 03:43:12;;;;;;;;;0.50;0.50;;;;;12.83;100.00;101822.94;5089842;27;45409;-80
2023/02/19 03:45:40;;;;;;;;;4.00;0.67;;;;;12.78;100.00;101840.59;5108412;27;45427;-80
2023/02/19 03:48:26;;;;;;;;;1.00;0.33;;;;;12.84;100.00;101835.38;5109465;27;46665;-80
2023/02/19 03:50:54;;;;;;;;;1.67;0.67;;;;;12.83;100.00;101832.72;5088984;27;45558;-79
2023/02/19 03:53:30;;;;;;;;;0.67;0.67;;;;;12.83;100.00;101832.72;5089070;27;45499;-79
2023/02/19 03:56:26;;;;;;;;;1.00;1.00;;;;;12.81;100.00;101830.88;5091470;27;45488;-80
2023/02/19 03:58:54;;;;;;;;;0.00;0.00;;;;;12.76;100.00;101839.66;5107802;27;45473;-80
2023/02/19 04:01:50;;;;;;;;;0.00;0.00;;;;;12.71;100.00;101836.00;5109277;27;45314;-80
2023/02/19 04:04:25;;;;;;;;;0.00;0.00;;;;;12.73;100.00;101855.63;5092428;27;45517;-80
2023/02/19 04:06:56;;;;;;;;;0.00;0.00;;;;;12.65;100.00;101843.88;5095563;27;45563;-81
2023/02/19 04:09:27;;;;;;;;;1.00;1.00;;;;;12.67;100.00;101853.69;5109983;27;45441;-79
2023/02/19 04:11:54;;;;;;;;;0.00;0.00;;;;;12.65;100.00;101849.19;5092053;27;45570;-81
2023/02/19 04:14:28;;;;;;;;;0.67;0.67;;;;;12.71;100.00;101850.25;5110276;27;45522;-80
2023/02/19 04:16:59;;;;;;;;;0.00;0.00;;;;;12.66;100.00;101853.66;5089488;27;45474;-81
2023/02/19 04:19:28;;;;;;;;;0.00;0.00;;;;;12.61;100.00;101843.78;5088658;27;47041;-80
2023/02/19 04:21:55;;;;;;;;;1.33;1.00;;;;;12.66;100.00;101869.66;5104816;27;45487;-80
2023/02/19 04:24:26;;;;;;;;;0.00;0.00;;;;;12.64;100.00;101861.63;5086943;27;45413;-80
2023/02/19 04:26:53;;;;;;;;;1.00;1.00;;;;;12.65;100.00;101875.88;5086340;27;45813;-80
2023/02/19 04:29:19;;;;;;;;;1.00;1.00;;;;;12.61;100.00;101870.47;5104855;27;46196;-80
2023/02/19 04:31:44;;;;;;;;;1.00;1.00;;;;;12.60;100.00;101865.09;5086667;27;45947;-81
2023/02/19 04:34:10;;;;;;;;;3.00;1.00;;;;;12.62;100.00;101871.34;5081053;28;45529;-80
2023/02/19 04:36:35;;;;;;;;;1.00;1.00;;;;;12.65;100.00;101870.56;5084291;28;45537;-80
2023/02/19 04:39:02;;;;;;;;;1.00;1.00;;;;;12.65;100.00;101863.44;5081862;28;47678;-80
2023/02/19 04:41:27;;;;;;;;;0.00;0.00;;;;;12.62;100.00;101879.38;5086864;28;45441;-80
2023/02/19 04:43:53;;;;;;;;;2.00;2.00;;;;;12.60;100.00;101873.09;5082796;27;45404;-80
2023/02/19 04:46:18;;;;;;;;;0.00;0.00;;;;;12.58;100.00;101875.75;5082793;28;45696;-79
2023/02/19 04:48:44;;;;;;;;;2.00;0.00;;;;;12.60;100.00;101890.03;5083281;28;45542;-80
2023/02/19 04:51:09;;;;;;;;;0.00;0.00;;;;;12.54;100.00;101872.94;5085105;27;45408;-80
2023/02/19 04:53:36;;;;;;;;;0.00;0.00;;;;;12.56;100.00;101877.47;5087529;27;45285;-80
2023/02/19 04:56:19;;;;;;;;;0.00;0.00;;;;;12.64;100.00;101880.31;5086324;27;45414;-80
2023/02/19 04:58:45;;;;;;;;;0.00;0.00;;;;;12.57;100.00;101889.03;5083106;28;47725;-80
2023/02/19 05:01:10;;;;;;;;;0.67;0.33;;;;;12.57;100.00;101889.94;5083622;27;45428;-80
2023/02/19 05:03:36;;;;;;;;;0.00;0.00;;;;;12.69;100.00;101896.44;5084403;28;45343;-80
2023/02/19 05:06:09;;;;;;;;;1.00;0.00;;;;;12.74;100.00;101910.78;5083636;28;45899;-80
2023/02/19 05:08:35;;;;;;;;;0.00;0.00;;;;;12.67;100.00;101906.19;5082407;28;47042;-80
2023/02/19 05:11:02;;;;;;;;;0.50;0.50;;;;;12.60;100.00;101903.38;5082734;27;45424;-82
2023/02/19 05:13:28;;;;;;;;;0.00;0.00;;;;;12.59;100.00;101914.91;5085381;28;45418;-80
2023/02/19 05:16:00;;;;;;;;;1.00;1.00;;;;;12.66;100.00;101904.38;5084913;28;45559;-80
2023/02/19 05:18:26;;;;;;;;;2.00;2.00;;;;;12.59;100.00;101912.22;5082723;27;45483;-80
2023/02/19 05:20:52;;;;;;;;;0.33;0.33;;;;;12.68;100.00;101913.31;5081814;28;45839;-80
2023/02/19 05:23:19;;;;;;;;;1.00;0.00;;;;;12.73;100.00;101919.69;5081620;28;45405;-80
2023/02/19 05:25:44;;;;;;;;;0.00;0.00;;;;;12.68;100.00;101914.22;5084188;27;45540;-80
2023/02/19 05:28:16;;;;;;;;;2.00;0.50;;;;;12.77;100.00;101918.88;5083031;28;46956;-80
2023/02/19 05:30:50;;;;;;;;;1.00;0.25;;;;;12.81;100.00;101915.44;5083559;27;45465;-80
2023/02/19 05:33:17;;;;;;;;;1.25;0.00;;;;;12.78;100.00;101920.69;5093489;27;45340;-80
2023/02/19 05:35:49;;;;;;;;;0.00;0.00;;;;;12.78;100.00;101926.00;5085581;27;45446;-79
2023/02/19 05:38:15;;;;;;;;;3.00;0.00;;;;;12.75;100.00;101928.63;5089298;27;47408;-80
2023/02/19 05:40:41;;;;;;;;;0.75;0.75;;;;;12.68;100.00;101929.31;5084825;27;45737;-80
2023/02/19 05:43:07;;;;;;;;;1.00;1.00;;;;;12.69;100.00;101931.16;5102966;27;45779;-80
2023/02/19 05:45:34;;;;;;;;;0.00;0.00;;;;;12.66;100.00;101920.38;5103827;27;45665;-80
2023/02/19 05:48:00;;;;;;;;;0.00;0.00;;;;;12.66;100.00;101933.72;5089848;27;47294;-80
2023/02/19 05:50:26;;;;;;;;;2.00;1.00;;;;;12.64;100.00;101927.44;5086557;27;45452;-81
2023/02/19 05:52:51;;;;;;;;;0.50;0.50;;;;;12.66;100.00;101947.97;5104663;27;44833;-81
2023/02/19 05:55:17;;;;;;;;;1.00;1.00;;;;;12.68;100.00;101945.34;5103219;27;45417;-80
2023/02/19 05:57:46;;;;;;;;;1.00;1.00;;;;;12.74;100.00;101958.84;5085313;27;47191;-80
2023/02/19 06:00:15;;;;;;;;;1.00;1.00;;;;;12.74;100.00;101953.50;5104610;27;44732;-81
2023/02/19 06:02:41;;;;;;;;;2.00;2.00;;;;;12.64;100.00;101946.13;5085775;27;45462;-80
2023/02/19 06:05:07;;;;;;;;;1.33;1.33;;;;;12.68;100.00;101942.66;5087066;27;45377;-80
2023/02/19 06:07:33;;;;;;;;;1.33;0.67;;;;;12.73;100.00;101944.59;5085020;27;47804;-81
2023/02/19 06:10:46;;;;;;;;;2.00;2.00;;;;;12.80;100.00;101951.91;5104267;27;45393;-80
2023/02/19 06:13:11;;;;;;;;;1.00;1.00;;;;;12.68;100.00;101943.56;5086642;27;45298;-80
2023/02/19 06:15:37;;;;;;;;;3.00;2.00;;;;;12.72;100.00;101955.22;5085254;27;45904;-81
2023/02/19 06:18:03;;;;;;;;;2.00;2.00;;;;;12.68;100.00;101948.00;5106150;27;45424;-81
2023/02/19 06:20:28;;;;;;;;;2.00;2.00;;;;;12.66;100.00;101937.28;5085137;27;45393;-81
2023/02/19 06:22:54;;;;;;;;;3.33;2.00;;;;;12.64;100.00;101947.03;5085517;27;45853;-81
2023/02/19 06:25:19;;;;;;;;;2.00;2.00;;;;;12.63;100.00;101941.69;5104072;27;45407;-81
2023/02/19 06:27:45;;;;;;;;;2.67;1.00;;;;;12.63;100.00;101953.25;5103730;27;46317;-81
2023/02/19 06:30:11;;;;;;;;;3.00;3.00;;;;;12.64;100.00;101948.81;5086980;27;45360;-81
2023/02/19 06:32:36;;;;;;;;;2.67;2.67;;;;;12.64;100.00;101949.69;5084265;27;45907;-81
2023/02/19 06:35:02;;;;;;;;;2.67;2.00;;;;;12.57;100.00;101943.31;5084094;27;45318;-81
2023/02/19 06:37:28;;;;;;;;;2.00;2.00;;;;;12.58;100.00;101958.47;5102869;27;45727;-81
2023/02/19 06:39:53;;;;;;;;;3.00;3.00;;;;;12.61;100.00;101961.22;5103484;27;45518;-81
2023/02/19 06:42:18;;;;;;;;;4.33;3.00;;;;;12.66;100.00;101971.09;5083790;27;45910;-81
2023/02/19 06:44:44;;;;;;;;;2.00;2.00;;;;;12.64;100.00;101965.72;5105865;27;45376;-81
2023/02/19 06:47:09;;;;;;;;;0.00;0.00;;;;;12.67;100.00;101972.91;5089079;27;48088;-81
2023/02/19 06:49:35;;;;;;;;;2.67;2.67;;;;;12.60;100.00;101963.81;5087297;27;45488;-81
2023/02/19 06:52:02;;;;;;;;;3.00;3.00;;;;;12.66;100.00;101969.31;5105875;27;45499;-81
2023/02/19 06:54:27;;;;;;;;;2.67;2.67;;;;;12.63;100.00;101968.38;5105734;27;44766;-80
2023/02/19 06:56:53;;;;;;;;;3.00;2.33;;;;;12.64;100.00;101964.81;5104791;27;45368;-81
2023/02/19 06:59:18;;;;;;;;;3.33;3.33;;;;;12.68;100.00;101982.72;5086185;27;45707;-81
2023/02/19 07:01:45;;;;;;;;;3.33;3.33;;;;;12.71;100.00;101994.38;5085656;27;45362;-81
2023/02/19 07:04:10;;;;;;;;;5.67;3.67;;;;;12.68;100.00;101993.38;5086375;27;45402;-81
2023/02/19 07:06:36;;;;;;;;;3.00;2.00;;;;;12.67;100.00;101991.59;5103851;27;46148;-81
2023/02/19 07:09:04;;;;;;;;;3.00;1.67;;;;;12.63;100.00;101992.38;5085762;27;45495;-80
2023/02/19 07:14:51;;;;;;;;;1.67;1.67;;;;;12.57;100.00;102003.78;5107130;27;45487;-80
2023/02/19 07:17:17;;;;;;;;;4.67;4.00;;;;;12.59;100.00;102010.97;5087777;27;47185;-80
2023/02/19 07:19:42;;;;;;;;;2.00;2.00;;;;;12.64;100.00;102018.19;5087202;27;45425;-80
2023/02/19 07:22:08;;;;;;;;;3.00;3.00;;;;;12.65;100.00;102014.69;5087932;27;44947;-80
2023/02/19 07:24:33;;;;;;;;;5.00;4.00;;;;;12.66;100.00;102014.69;5090574;27;45604;-80
2023/02/19 07:26:58;;;;;;;;;5.33;4.33;;;;;12.60;100.00;102006.53;5108202;27;45858;-81
2023/02/19 07:29:24;;;;;;;;;3.00;3.00;;;;;12.58;100.00;102011.84;5087411;27;45534;-80
2023/02/19 07:31:49;;;;;;;;;3.33;3.00;;;;;12.57;100.00;102012.69;5087740;27;44832;-80
2023/02/19 07:34:14;;;;;;;;;4.00;3.67;;;;;12.68;100.00;102033.44;5085289;28;45487;-79
2023/02/19 07:36:40;;;;;;;;;4.33;4.33;;;;;12.67;100.00;102036.97;5083855;28;47041;-80
2023/02/19 07:39:05;;;;;;;;;3.33;3.33;;;;;12.66;100.00;102033.38;5097380;27;45520;-79
2023/02/19 07:41:31;;;;;;;;;4.33;4.00;;;;;12.68;100.00;102030.75;5103589;27;45510;-79
2023/02/19 07:43:57;;;;;;;;;3.67;3.67;;;;;12.70;100.00;102029.03;5103735;27;45514;-80
2023/02/19 07:46:23;;;;;;;;;4.00;4.00;;;;;12.77;100.00;102036.34;5106578;27;45619;-80
2023/02/19 07:48:49;;;;;;;;;5.00;5.00;;;;;12.76;100.00;102030.06;5106412;27;45397;-81
2023/02/19 07:51:17;;;;;;;;;5.00;5.00;;;;;12.89;100.00;102031.31;5107508;27;45364;-80
2023/02/19 07:53:49;;;;;;;;;3.67;2.33;;;;;13.00;100.00;102037.81;5105819;27;45456;-81
2023/02/19 07:56:14;;;;;;;;;5.00;4.00;;;;;12.96;100.00;102033.25;5088698;27;47339;-80
2023/02/19 07:58:40;;;;;;;;;5.33;4.00;;;;;12.94;100.00;102024.31;5106122;27;45527;-80
2023/02/19 08:01:15;;;;;;;;;4.33;4.00;;;;;13.11;100.00;102037.16;5109347;27;45348;-80
2023/02/19 08:03:41;;;;;;;;;5.00;3.67;;;;;13.08;100.00;102059.38;5107604;27;45401;-80
2023/02/19 08:06:09;;;;;;;;;4.33;4.33;;;;;13.07;100.00;102056.66;5104361;27;47321;-80
2023/02/19 08:08:36;;;;;;;;;4.00;4.00;;;;;13.06;100.00;102058.44;5105590;27;45423;-80
2023/02/19 08:13:50;;;;;;;;;4.00;2.33;;;;;13.04;100.00;102061.94;5106890;27;45302;-80
2023/02/19 08:16:18;;;;;;;;;4.67;4.00;;;;;12.93;100.00;102051.88;5102811;27;45402;-80
2023/02/19 08:18:51;;;;;;;;;5.00;4.00;;;;;12.96;100.00;102073.31;5104934;27;45630;-80
2023/02/19 08:21:19;;;;;;;;;3.67;3.67;;;;;13.01;100.00;102062.78;5104273;27;45440;-79
2023/02/19 08:23:45;;;;;;;;;3.33;3.33;;;;;12.98;100.00;102057.34;5103066;27;45389;-80
2023/02/19 08:26:11;;;;;;;;;4.33;4.33;;;;;13.11;100.00;102069.22;5103757;27;45503;-80
2023/02/19 08:28:36;;;;;;;;;3.00;3.00;;;;;13.08;100.00;102063.81;5104078;27;45423;-81
2023/02/19 08:31:05;;;;;;;;;3.00;3.00;;;;;13.12;100.00;102071.94;5104751;27;45463;-81
2023/02/19 08:33:31;;;;;;;;;4.00;2.67;;;;;13.06;100.00;102071.78;5104758;27;45351;-81
2023/02/19 08:36:03;;;;;;;;;1.67;1.67;;;;;13.16;100.00;102079.16;5105021;27;45530;-81
2023/02/19 08:38:33;;;;;;;;;4.00;2.33;;;;;13.10;100.00;102075.44;5104258;27;45420;-81
2023/02/19 08:40:59;;;;;;;;;3.67;3.67;;;;;13.10;100.00;102068.31;5102941;27;45430;-80
2023/02/19 08:43:24;;;;;;;;;2.00;2.00;;;;;13.12;100.00;102071.03;5103710;27;44838;-81
2023/02/19 08:45:53;;;;;;;;;2.00;2.00;;;;;13.11;100.00;102069.22;5103378;27;46569;-81
2023/02/19 08:48:25;;;;;;;;;3.00;3.00;;;;;13.14;100.00;102070.22;5101137;27;45754;-80
2023/02/19 08:50:57;;;;;;;;;1.67;1.67;;;;;13.14;100.00;102085.34;5102738;27;45392;-80
2023/02/19 08:53:23;;;;;;;;;0.00;0.00;;;;;13.10;100.00;102054.06;5102359;27;45586;-80
2023/02/19 08:55:48;;;;;;;;;2.67;2.67;;;;;13.17;100.00;102059.63;5104177;27;45898;-80
2023/02/19 08:58:14;;;;;;;;;2.00;2.00;;;;;13.24;100.00;102065.09;5104115;27;45549;-81
2023/02/19 09:00:39;;;;;;;;;2.00;1.00;;;;;13.30;100.00;102082.22;5105077;27;45449;-81
2023/02/19 09:03:05;;;;;;;;;2.00;2.00;;;;;13.31;100.00;102078.69;5105909;27;45519;-81
2023/02/19 09:05:32;;;;;;;;;1.67;1.67;;;;;13.30;100.00;102071.53;5104421;27;47923;-81
2023/02/19 09:07:57;;;;;;;;;1.00;1.00;;;;;13.25;100.00;102078.50;5101552;27;45521;-81
2023/02/19 09:10:23;;;;;;;;;0.50;0.50;;;;;13.32;100.00;102080.47;5104476;27;45532;-81
2023/02/19 09:12:48;;;;;;;;;2.67;1.67;;;;;13.42;100.00;102078.03;5103965;27;45385;-79
2023/02/19 09:15:14;;;;;;;;;2.75;1.00;;;;;13.46;100.00;102091.50;5104991;27;45424;-80
2023/02/19 09:17:40;;;;;;;;;3.67;2.00;;;;;13.45;100.00;102102.16;5101513;27;45375;-80
2023/02/19 09:20:06;;;;;;;;;2.00;2.00;;;;;13.43;100.00;102096.75;5103247;27;45465;-80
2023/02/19 09:22:31;;;;;;;;;5.00;3.33;;;;;13.44;100.00;102095.00;5101602;27;45239;-80
2023/02/19 09:24:57;;;;;;;;;3.00;3.00;;;;;13.48;100.00;102087.09;5101167;27;46779;-80
2023/02/19 09:27:24;;;;;;;;;5.67;3.67;;;;;13.49;100.00;102091.59;5103728;27;45442;-79
2023/02/19 09:29:49;;;;;;;;;2.00;2.00;;;;;13.62;100.00;102094.56;5101248;27;45438;-80
2023/02/19 09:32:15;;;;;;;;;5.00;1.67;;;;;13.65;100.00;102095.50;5098204;27;45565;-80
2023/02/19 09:34:40;;;;;;;;;4.00;2.00;;;;;13.74;100.00;102097.50;5099574;27;45629;-80
2023/02/19 09:37:07;;;;;;;;;3.00;2.00;;;;;13.90;100.00;102086.28;5102469;27;45516;-81
2023/02/19 09:39:34;;;;;;;;;3.00;3.00;;;;;13.96;100.00;102094.44;5101908;27;45514;-80
2023/02/19 09:42:14;;;;;;;;;2.00;1.67;;;;;14.06;100.00;102092.88;5102954;27;45357;-80
2023/02/19 09:44:43;;;;;;;;;4.00;3.00;;;;;14.19;100.00;102110.97;5101505;27;48730;-80
2023/02/19 09:47:25;;;;;;;;;5.00;4.00;;;;;14.12;100.00;102098.34;5102383;27;45379;-80
2023/02/19 09:50:04;;;;;;;;;3.00;3.00;;;;;14.04;100.00;102094.59;5101940;27;45515;-81
2023/02/19 09:52:37;;;;;;;;;3.33;3.33;;;;;14.00;100.00;102104.34;5103571;27;45730;-81
2023/02/19 09:55:14;;;;;;;;;3.67;2.00;;;;;14.05;100.00;102107.09;5104409;27;45388;-80
2023/02/19 09:57:40;;;;;;;;;3.00;2.00;;;;;13.99;100.00;102109.63;5103745;27;45381;-81
2023/02/19 10:00:27;;;;;;;;;2.00;2.00;;;;;14.11;100.00;102103.66;5104280;27;45731;-81
2023/02/19 10:03:04;;;;;;;;;3.00;3.00;;;;;14.12;100.00;102103.69;5106489;27;44822;-80
2023/02/19 10:05:31;;;;;;;;;3.00;3.00;;;;;14.14;100.00;102109.09;5103347;27;46720;-81
2023/02/19 10:07:57;;;;;;;;;6.33;5.00;;;;;14.12;100.00;102109.03;5105262;27;45395;-81
2023/02/19 10:10:43;;;;;;;;;3.33;3.33;;;;;14.12;100.00;102110.84;5100546;27;45530;-80
2023/02/19 10:13:20;;;;;;;;;7.00;6.00;;;;;14.13;100.00;102108.16;5102526;27;45426;-80
2023/02/19 10:15:52;;;;;;;;;2.33;2.33;;;;;14.12;100.00;102118.84;5100227;27;47048;-79
2023/02/19 10:18:22;;;;;;;;;3.67;2.00;;;;;14.13;100.00;102115.28;5107065;27;45403;-81
2023/02/19 10:20:49;;;;;;;;;6.33;4.33;;;;;14.19;100.00;102127.00;5104137;27;45451;-81
2023/02/19 10:23:15;;;;;;;;;3.67;3.67;;;;;14.31;100.00;102121.03;5102456;27;45510;-81
2023/02/19 10:25:56;;;;;;;;;7.33;6.00;;;;;14.49;100.00;102120.50;5103763;27;47474;-81
2023/02/19 10:28:27;;;;;;;;;4.00;2.67;;;;;14.64;100.00;102119.03;5102998;27;45395;-81
2023/02/19 10:30:55;;;;;;;;;4.00;4.00;;;;;14.67;100.00;102121.78;5101592;27;45471;-81
2023/02/19 10:33:21;;;;;;;;;7.00;4.00;;;;;14.70;100.00;102120.03;5106857;27;45613;-81
2023/02/19 10:36:03;;;;;;;;;6.00;5.00;;;;;14.70;100.00;102130.75;5122489;27;46067;-81
2023/02/19 10:38:35;;;;;;;;;5.00;4.00;;;;;14.62;100.00;102124.34;5103951;27;45469;-80
2023/02/19 10:41:14;;;;;;;;;4.33;4.33;;;;;14.76;100.00;102143.38;5103550;27;45563;-79
2023/02/19 10:43:48;;;;;;;;;7.00;5.33;;;;;14.81;100.00;102144.38;5103336;27;45811;-80
2023/02/19 10:46:16;;;;;;;;;4.00;4.00;;;;;14.91;100.00;102138.31;5104229;27;45415;-80
2023/02/19 10:48:57;;;;;;;;;5.00;4.00;;;;;15.07;100.00;102147.53;5106826;27;45497;-80
2023/02/19 10:51:44;;;;;;;;;5.00;5.00;;;;;15.06;100.00;102147.50;5106781;27;45376;-80
2023/02/19 10:54:19;;;;;;;;;6.00;5.67;;;;;14.89;100.00;102164.16;5105719;27;45413;-80
2023/02/19 10:56:47;;;;;;;;;6.00;5.00;;;;;14.79;100.00;102172.91;5107336;27;46981;-80
2023/02/19 10:59:25;;;;;;;;;4.67;4.67;;;;;14.78;100.00;102181.78;5107929;27;45401;-80
2023/02/19 11:02:14;;;;;;;;;4.67;3.33;;;;;14.65;100.00;102183.34;5125537;27;45896;-80
2023/02/19 11:04:40;;;;;;;;;8.00;5.67;;;;;14.63;100.00;102176.16;5107034;27;45326;-80
2023/02/19 11:07:13;;;;;;;;;3.00;3.00;;;;;14.64;100.00;102176.16;5125053;27;45376;-81
2023/02/19 11:09:44;;;;;;;;;3.33;3.33;;;;;14.68;100.00;102175.34;5125265;27;45359;-81
2023/02/19 11:12:13;;;;;;;;;5.67;4.00;;;;;14.74;100.00;102170.09;5125827;27;45459;-80
2023/02/19 11:14:42;;;;;;;;;6.00;4.33;;;;;14.73;100.00;102179.03;5107653;27;44872;-81
2023/02/19 11:17:40;;;;;;;;;5.33;5.33;;;;;14.64;100.00;102168.13;5126053;27;45516;-81
2023/02/19 11:20:16;;;;;;;;;6.00;5.00;;;;;14.54;100.00;102160.75;5041198;28;45819;-80
2023/02/19 11:22:45;;;;;;;;;6.00;6.00;;;;;14.67;100.00;102169.97;5043040;28;45611;-80
2023/02/19 11:25:13;;;;;;;;;5.00;5.00;;;;;14.82;100.00;102182.75;5036027;28;45537;-81
2023/02/19 11:27:58;;;;;;;;;6.33;6.33;;;;;14.90;100.00;102182.03;5004524;28;48104;-80
2023/02/19 11:30:29;;;;;;;;;6.33;4.67;;;;;14.80;100.00;102170.25;5006830;28;45715;-81
2023/02/19 11:32:56;;;;;;;;;6.33;5.00;;;;;14.65;100.00;102171.72;5020625;28;45829;-80
2023/02/19 11:35:24;;;;;;;;;9.33;9.33;;;;;14.62;100.00;102185.03;5024107;28;45531;-81
2023/02/19 11:38:00;;;;;;;;;7.67;6.33;;;;;14.53;100.00;102181.28;5020889;28;47321;-81
2023/02/19 11:40:52;;;;;;;;;5.33;5.33;;;;;14.53;100.00;102185.72;5020419;28;45478;-81
2023/02/19 11:43:29;;;;;;;;;7.00;7.00;;;;;14.52;100.00;102195.53;5006586;28;45316;-80
2023/02/19 11:46:00;;;;;;;;;3.33;3.00;;;;;14.65;100.00;102185.13;5023516;28;45446;-81
2023/02/19 11:48:31;;;;;;;;;6.00;5.00;;;;;14.68;100.00;102182.47;5024448;28;46485;-81
2023/02/19 11:50:57;;;;;;;;;7.33;7.33;;;;;14.71;100.00;102201.31;5023681;28;45799;-81
2023/02/19 11:53:26;;;;;;;;;6.67;6.67;;;;;14.75;100.00;102201.38;5004378;28;45848;-81